Time;durP1;ratioP1;P1;durP2;ratioP2;P2;SDS_P1;SDS_P2;PMS_P1;PMS_P2;Temp;Humidity;BMP_temperature;BMP_pressure;BME280_temperature;BME280_humidity;BME280_pressure;Samples;Min_cycle;Max_cycle;Signal;HPM_P1;HPM_P2
2020/12/19 00:00:41;;;;;;;1.30;0.73;;;;;;;;;;5041948;28;20175;-81
2020/12/19 00:03:07;;;;;;;0.90;0.60;;;;;;;;;;5040556;28;20041;-80
2020/12/19 00:05:33;;;;;;;0.68;0.60;;;;;;;;;;5036993;28;20553;-84
2020/12/19 00:08:00;;;;;;;0.70;0.70;;;;;;;;;;5041410;28;20041;-85
2020/12/19 00:10:28;;;;;;;1.38;0.90;;;;;;;;;;5040399;28;20060;-85
2020/12/19 00:12:59;;;;;;;1.23;1.00;;;;;;;;;;5037988;28;20064;-83
2020/12/19 00:15:26;;;;;;;1.15;0.80;;;;;;;;;;5039646;28;20051;-82
2020/12/19 00:17:53;;;;;;;1.13;0.80;;;;;;;;;;5034226;28;20053;-82
2020/12/19 00:20:19;;;;;;;0.73;0.70;;;;;;;;;;5037321;28;20576;-83
2020/12/19 00:22:46;;;;;;;1.30;0.77;;;;;;;;;;5039981;28;20045;-82
2020/12/19 00:25:12;;;;;;;0.98;0.80;;;;;;;;;;5037939;28;20049;-84
2020/12/19 00:27:38;;;;;;;1.13;0.77;;;;;;;;;;5034582;28;20792;-83
2020/12/19 00:30:08;;;;;;;21.25;1.52;;;;;;;;;;5034062;28;20053;-83
2020/12/19 00:32:41;;;;;;;3.92;1.00;;;;;;;;;;5042445;28;20038;-79
2020/12/19 00:35:08;;;;;;;2.75;0.82;;;;;;;;;;5040494;28;20124;-78
2020/12/19 00:37:38;;;;;;;0.93;0.80;;;;;;;;;;5035368;28;20049;-79
2020/12/19 00:40:08;;;;;;;1.00;0.80;;;;;;;;;;5036088;28;20045;-79
2020/12/19 00:42:37;;;;;;;0.95;0.88;;;;;;;;;;5039067;28;20443;-80
2020/12/19 00:45:12;;;;;;;0.80;0.60;;;;;;;;;;5035643;28;20113;-80
2020/12/19 00:47:38;;;;;;;1.75;0.73;;;;;;;;;;5041383;28;20055;-80
2020/12/19 00:50:05;;;;;;;0.88;0.57;;;;;;;;;;5037763;28;20699;-79
2020/12/19 00:52:35;;;;;;;1.30;0.68;;;;;;;;;;5039522;28;20143;-80
2020/12/19 00:55:02;;;;;;;2.17;0.70;;;;;;;;;;5039667;28;20171;-80
2020/12/19 00:57:38;;;;;;;0.98;0.75;;;;;;;;;;5035622;28;20057;-81
2020/12/19 01:00:18;;;;;;;0.93;0.60;;;;;;;;;;5036684;28;20398;-82
2020/12/19 01:03:05;;;;;;;2.13;0.70;;;;;;;;;;5038344;28;20049;-81
2020/12/19 01:06:23;;;;;;;0.88;0.70;;;;;;;;;;5038813;28;20048;-82
2020/12/19 01:08:58;;;;;;;1.20;0.65;;;;;;;;;;5036352;28;20048;-80
2020/12/19 01:11:33;;;;;;;1.20;0.52;;;;;;;;;;5033065;28;20061;-80
2020/12/19 01:14:03;;;;;;;0.70;0.60;;;;;;;;;;5031214;28;20136;-81
2020/12/19 01:16:38;;;;;;;0.75;0.65;;;;;;;;;;5036451;28;20060;-80
2020/12/19 01:19:09;;;;;;;2.15;0.88;;;;;;;;;;5043918;28;20037;-79
2020/12/19 01:21:38;;;;;;;2.28;0.75;;;;;;;;;;5034326;28;20046;-78
2020/12/19 01:24:05;;;;;;;1.63;1.05;;;;;;;;;;5037218;28;20072;-78
2020/12/19 01:26:31;;;;;;;0.73;0.60;;;;;;;;;;5036496;28;20087;-79
2020/12/19 01:28:57;;;;;;;1.15;0.65;;;;;;;;;;5034202;28;20045;-78
2020/12/19 01:31:24;;;;;;;1.23;0.80;;;;;;;;;;5033840;28;20051;-81
2020/12/19 01:34:00;;;;;;;1.08;0.60;;;;;;;;;;5035810;28;20051;-78
2020/12/19 01:36:26;;;;;;;0.93;0.68;;;;;;;;;;5040736;28;20132;-79
2020/12/19 01:38:52;;;;;;;1.02;0.70;;;;;;;;;;5036012;28;20055;-78
2020/12/19 01:41:20;;;;;;;1.35;0.80;;;;;;;;;;5037039;28;20057;-79
2020/12/19 01:43:54;;;;;;;0.68;0.50;;;;;;;;;;5035968;28;20490;-82
2020/12/19 01:46:39;;;;;;;1.08;0.70;;;;;;;;;;5035605;28;20128;-83
2020/12/19 01:49:06;;;;;;;1.02;0.73;;;;;;;;;;5037291;28;20450;-80
2020/12/19 01:51:36;;;;;;;0.82;0.55;;;;;;;;;;5035213;28;20052;-79
2020/12/19 01:54:03;;;;;;;2.92;0.70;;;;;;;;;;5036650;28;20077;-79
2020/12/19 01:56:39;;;;;;;0.98;0.85;;;;;;;;;;5041217;28;20059;-79
2020/12/19 01:59:14;;;;;;;0.65;0.60;;;;;;;;;;5033266;28;20051;-80
2020/12/19 02:01:47;;;;;;;1.30;0.80;;;;;;;;;;5034070;28;20060;-78
2020/12/19 02:04:13;;;;;;;1.23;0.60;;;;;;;;;;5038373;28;20055;-77
2020/12/19 02:06:44;;;;;;;1.00;0.52;;;;;;;;;;5032837;28;20056;-79
2020/12/19 02:09:11;;;;;;;1.75;0.70;;;;;;;;;;5037674;28;20041;-78
2020/12/19 02:11:37;;;;;;;1.35;0.70;;;;;;;;;;5037741;28;20045;-77
2020/12/19 02:14:06;;;;;;;1.33;0.85;;;;;;;;;;5031621;28;20136;-78
2020/12/19 02:16:32;;;;;;;2.70;0.90;;;;;;;;;;5031114;28;20197;-80
2020/12/19 02:18:58;;;;;;;1.10;0.68;;;;;;;;;;5034949;28;22335;-77
2020/12/19 02:21:24;;;;;;;1.52;0.82;;;;;;;;;;5038768;28;20490;-77
2020/12/19 02:23:51;;;;;;;0.65;0.50;;;;;;;;;;5036241;28;20120;-77
2020/12/19 02:26:18;;;;;;;1.85;1.02;;;;;;;;;;5037340;28;20048;-76
2020/12/19 02:28:44;;;;;;;2.20;0.82;;;;;;;;;;5039830;28;20774;-80
2020/12/19 02:31:10;;;;;;;1.17;0.60;;;;;;;;;;5039323;28;20045;-79
2020/12/19 02:33:37;;;;;;;2.33;0.80;;;;;;;;;;5036951;28;20041;-79
2020/12/19 02:36:06;;;;;;;1.60;0.77;;;;;;;;;;5034185;28;20056;-79
2020/12/19 02:38:33;;;;;;;1.75;0.60;;;;;;;;;;5035113;28;20133;-78
2020/12/19 02:41:02;;;;;;;3.72;0.88;;;;;;;;;;5037062;28;20132;-77
2020/12/19 02:43:28;;;;;;;1.27;0.75;;;;;;;;;;5039727;28;20044;-78
2020/12/19 02:45:54;;;;;;;1.60;0.77;;;;;;;;;;5036829;28;20060;-79
2020/12/19 02:48:20;;;;;;;0.43;0.43;;;;;;;;;;5039684;28;20049;-77
2020/12/19 02:50:46;;;;;;;1.35;1.00;;;;;;;;;;5049104;28;20053;-78
2020/12/19 02:53:13;;;;;;;1.73;0.90;;;;;;;;;;5039530;28;20399;-77
2020/12/19 02:55:39;;;;;;;0.57;0.43;;;;;;;;;;5038974;28;20190;-80
2020/12/19 02:58:05;;;;;;;0.80;0.60;;;;;;;;;;5042498;28;20588;-79
2020/12/19 03:00:31;;;;;;;0.95;0.57;;;;;;;;;;5041418;28;20250;-79
2020/12/19 03:02:57;;;;;;;1.45;0.85;;;;;;;;;;5044694;28;20049;-79
2020/12/19 03:05:23;;;;;;;2.30;0.63;;;;;;;;;;5044424;28;20059;-79
2020/12/19 03:07:49;;;;;;;2.13;0.75;;;;;;;;;;5042112;28;20120;-78
2020/12/19 03:10:16;;;;;;;5.65;0.80;;;;;;;;;;5036551;28;20077;-78
2020/12/19 03:12:42;;;;;;;1.23;0.60;;;;;;;;;;5039480;28;20144;-80
2020/12/19 03:15:08;;;;;;;1.55;0.68;;;;;;;;;;5046087;28;20049;-80
2020/12/19 03:17:34;;;;;;;1.75;0.85;;;;;;;;;;5045705;28;20045;-80
2020/12/19 03:20:00;;;;;;;2.03;0.70;;;;;;;;;;5041674;28;20045;-80
2020/12/19 03:22:27;;;;;;;2.70;1.48;;;;;;;;;;5035591;28;20499;-80
2020/12/19 03:24:53;;;;;;;1.30;0.68;;;;;;;;;;5041033;28;20134;-80
2020/12/19 03:27:19;;;;;;;1.83;1.13;;;;;;;;;;5038441;28;20438;-80
2020/12/19 03:29:46;;;;;;;2.03;0.77;;;;;;;;;;5040019;28;20505;-79
2020/12/19 03:32:12;;;;;;;4.72;0.60;;;;;;;;;;5040358;28;20056;-81
2020/12/19 03:34:38;;;;;;;1.45;0.80;;;;;;;;;;5038980;28;20050;-80
2020/12/19 03:37:04;;;;;;;2.42;0.95;;;;;;;;;;5040971;28;20152;-80
2020/12/19 03:39:30;;;;;;;0.82;0.60;;;;;;;;;;5036247;28;20398;-79
2020/12/19 03:41:56;;;;;;;1.02;0.70;;;;;;;;;;5046509;28;20041;-80
2020/12/19 03:44:22;;;;;;;2.60;0.95;;;;;;;;;;5042561;28;20041;-83
2020/12/19 03:46:48;;;;;;;2.78;0.90;;;;;;;;;;5039839;28;20091;-80
2020/12/19 03:49:16;;;;;;;1.92;0.47;;;;;;;;;;5035427;28;20144;-80
2020/12/19 03:51:42;;;;;;;1.63;0.65;;;;;;;;;;5036661;28;20071;-88
2020/12/19 03:54:09;;;;;;;3.97;0.80;;;;;;;;;;5039308;28;20068;-79
2020/12/19 03:56:35;;;;;;;10.23;1.63;;;;;;;;;;5042416;28;20041;-78
2020/12/19 03:59:01;;;;;;;1.65;0.82;;;;;;;;;;5040144;28;20053;-77
2020/12/19 04:01:27;;;;;;;1.75;0.65;;;;;;;;;;5042622;28;20131;-80
2020/12/19 04:03:53;;;;;;;1.98;0.98;;;;;;;;;;5033587;28;20144;-81
2020/12/19 04:06:19;;;;;;;2.15;0.90;;;;;;;;;;5040802;28;20048;-80
2020/12/19 04:08:46;;;;;;;3.47;1.40;;;;;;;;;;5033479;28;20053;-82
2020/12/19 04:11:12;;;;;;;1.20;0.77;;;;;;;;;;5040817;28;20483;-81
2020/12/19 04:13:38;;;;;;;2.20;1.08;;;;;;;;;;5041551;28;20058;-79
2020/12/19 04:16:04;;;;;;;1.02;0.52;;;;;;;;;;5036233;28;20127;-82
2020/12/19 04:18:32;;;;;;;3.63;1.02;;;;;;;;;;5033250;28;20060;-82
2020/12/19 04:21:05;;;;;;;3.53;1.00;;;;;;;;;;5029793;28;20068;-82
2020/12/19 04:23:31;;;;;;;1.33;0.60;;;;;;;;;;5039707;28;20059;-82
2020/12/19 04:25:59;;;;;;;0.73;0.57;;;;;;;;;;5036329;28;20048;-80
2020/12/19 04:28:27;;;;;;;2.42;0.80;;;;;;;;;;5041682;28;20462;-80
2020/12/19 04:30:55;;;;;;;1.65;0.90;;;;;;;;;;5040320;28;20140;-82
2020/12/19 04:33:21;;;;;;;1.17;0.70;;;;;;;;;;5046604;28;20049;-81
2020/12/19 04:35:48;;;;;;;1.80;0.70;;;;;;;;;;5036940;28;20053;-82
2020/12/19 04:38:14;;;;;;;1.73;0.60;;;;;;;;;;5038023;28;20059;-81
2020/12/19 04:40:40;;;;;;;0.80;0.57;;;;;;;;;;5037894;28;20164;-80
2020/12/19 04:43:27;;;;;;;2.15;0.80;;;;;;;;;;5040285;28;20433;-80
2020/12/19 04:45:54;;;;;;;3.30;0.68;;;;;;;;;;5040491;28;20135;-80
2020/12/19 04:48:24;;;;;;;1.13;0.80;;;;;;;;;;5039492;28;20048;-80
2020/12/19 04:50:50;;;;;;;1.42;0.80;;;;;;;;;;5040252;28;20049;-79
2020/12/19 04:53:20;;;;;;;1.35;0.70;;;;;;;;;;5034121;28;20042;-80
2020/12/19 04:55:46;;;;;;;1.92;1.23;;;;;;;;;;5037519;28;20144;-81
2020/12/19 04:58:18;;;;;;;0.87;0.50;;;;;;;;;;5037093;28;20096;-80
2020/12/19 05:00:44;;;;;;;3.58;0.90;;;;;;;;;;5035501;28;20151;-81
2020/12/19 05:03:11;;;;;;;2.17;1.00;;;;;;;;;;5034192;28;20049;-81
2020/12/19 05:05:40;;;;;;;0.73;0.57;;;;;;;;;;5039746;28;20055;-81
2020/12/19 05:08:06;;;;;;;1.25;0.68;;;;;;;;;;5037457;28;20198;-80
2020/12/19 05:10:32;;;;;;;2.15;0.60;;;;;;;;;;5032614;28;20046;-80
2020/12/19 05:12:59;;;;;;;1.55;0.73;;;;;;;;;;5034797;28;20053;-80
2020/12/19 05:15:26;;;;;;;1.95;0.93;;;;;;;;;;5041688;28;20055;-80
2020/12/19 05:17:59;;;;;;;1.90;0.90;;;;;;;;;;5036253;28;20045;-80
2020/12/19 05:20:29;;;;;;;1.55;0.80;;;;;;;;;;5039020;28;20061;-81
2020/12/19 05:22:56;;;;;;;2.00;0.75;;;;;;;;;;5042503;28;20061;-80
2020/12/19 05:25:23;;;;;;;6.43;1.02;;;;;;;;;;5038042;28;20037;-79
2020/12/19 05:27:49;;;;;;;3.42;0.95;;;;;;;;;;5030926;28;20049;-81
2020/12/19 05:30:18;;;;;;;1.23;0.63;;;;;;;;;;5037957;28;20053;-81
2020/12/19 05:32:46;;;;;;;1.95;0.85;;;;;;;;;;5046464;23;20056;-79
2020/12/19 05:35:16;;;;;;;4.63;1.27;;;;;;;;;;5040226;28;20415;-80
2020/12/19 05:37:57;;;;;;;3.85;0.90;;;;;;;;;;5037596;28;20052;-80
2020/12/19 05:40:26;;;;;;;;;;;;;;;;;;5038879;28;20049;-80
2020/12/19 05:42:52;;;;;;;3.90;0.95;;;;;;;;;;5035141;28;19925;-79
2020/12/19 05:45:19;;;;;;;6.78;0.90;;;;;;;;;;5033841;28;20057;-81
2020/12/19 05:47:45;;;;;;;2.03;1.00;;;;;;;;;;5039099;28;20046;-80
2020/12/19 05:50:12;;;;;;;1.13;0.40;;;;;;;;;;5036799;28;20147;-80
2020/12/19 05:52:39;;;;;;;2.63;1.60;;;;;;;;;;5033493;28;20092;-80
2020/12/19 05:55:09;;;;;;;3.60;1.10;;;;;;;;;;5037691;28;20064;-80
2020/12/19 05:57:36;;;;;;;1.40;0.80;;;;;;;;;;5034445;28;20045;-80
2020/12/19 06:00:10;;;;;;;2.85;0.80;;;;;;;;;;5039429;28;20045;-80
2020/12/19 06:02:37;;;;;;;2.55;1.20;;;;;;;;;;5034683;28;20374;-80
2020/12/19 06:05:05;;;;;;;2.03;1.35;;;;;;;;;;5039234;28;20413;-80
2020/12/19 06:07:35;;;;;;;4.40;1.02;;;;;;;;;;5045062;28;20041;-81
2020/12/19 06:10:05;;;;;;;2.40;0.80;;;;;;;;;;5042444;28;20050;-81
2020/12/19 06:12:47;;;;;;;1.40;0.80;;;;;;;;;;5040503;28;20049;-80
2020/12/19 06:15:19;;;;;;;1.83;1.02;;;;;;;;;;5039635;28;20050;-80
2020/12/19 06:17:51;;;;;;;2.38;1.25;;;;;;;;;;5046839;28;20060;-80
2020/12/19 06:20:17;;;;;;;2.08;0.85;;;;;;;;;;5037129;28;20049;-80
2020/12/19 06:22:43;;;;;;;2.25;1.05;;;;;;;;;;5040383;28;20049;-80
2020/12/19 06:25:09;;;;;;;6.72;1.08;;;;;;;;;;5040033;28;20037;-79
2020/12/19 06:27:36;;;;;;;2.75;0.90;;;;;;;;;;5043841;28;20124;-81
2020/12/19 06:30:02;;;;;;;3.13;1.15;;;;;;;;;;5043345;28;20085;-79
2020/12/19 06:32:32;;;;;;;2.20;1.05;;;;;;;;;;5047952;28;20049;-79
2020/12/19 06:35:00;;;;;;;2.92;1.02;;;;;;;;;;5050237;28;20056;-81
2020/12/19 06:37:29;;;;;;;2.90;0.90;;;;;;;;;;5047374;28;20170;-80
2020/12/19 06:40:10;;;;;;;2.85;0.93;;;;;;;;;;5042574;28;20088;-79
2020/12/19 06:42:36;;;;;;;1.83;1.40;;;;;;;;;;5041787;28;20051;-84
2020/12/19 06:45:22;;;;;;;2.92;1.25;;;;;;;;;;5041960;28;20045;-81
2020/12/19 06:47:49;;;;;;;2.90;1.15;;;;;;;;;;5039047;28;20417;-80
2020/12/19 06:50:15;;;;;;;3.55;0.95;;;;;;;;;;5037369;28;20045;-80
2020/12/19 06:53:12;;;;;;;1.83;0.80;;;;;;;;;;5044055;28;20049;-80
2020/12/19 06:55:38;;;;;;;3.20;1.30;;;;;;;;;;5035869;28;20052;-80
2020/12/19 06:58:04;;;;;;;2.55;1.40;;;;;;;;;;5040930;28;20483;-79
2020/12/19 07:00:31;;;;;;;3.50;1.00;;;;;;;;;;5041467;28;20061;-82
2020/12/19 07:02:58;;;;;;;1.73;0.80;;;;;;;;;;5041437;28;20041;-82
2020/12/19 07:05:28;;;;;;;3.92;1.00;;;;;;;;;;5041325;28;20053;-82
2020/12/19 07:08:14;;;;;;;4.15;1.00;;;;;;;;;;5048067;28;20446;-82
2020/12/19 07:10:41;;;;;;;4.03;1.92;;;;;;;;;;5040360;28;20060;-78
2020/12/19 07:13:07;;;;;;;2.58;1.08;;;;;;;;;;5038629;28;20044;-79
2020/12/19 07:15:59;;;;;;;3.28;1.48;;;;;;;;;;5041537;28;20414;-81
2020/12/19 07:18:25;;;;;;;4.07;1.73;;;;;;;;;;5035425;28;20499;-78
2020/12/19 07:21:02;;;;;;;3.33;1.65;;;;;;;;;;5037333;28;20057;-79
2020/12/19 07:23:30;;;;;;;4.15;1.90;;;;;;;;;;5037065;28;20499;-75
2020/12/19 07:25:57;;;;;;;4.90;1.90;;;;;;;;;;5041293;28;20087;-78
2020/12/19 07:28:23;;;;;;;5.20;2.20;;;;;;;;;;5038551;28;20045;-89
2020/12/19 07:30:50;;;;;;;4.25;2.03;;;;;;;;;;5040854;28;20503;-94
2020/12/19 07:33:16;;;;;;;5.63;1.98;;;;;;;;;;5034379;28;20053;-87
2020/12/19 07:35:43;;;;;;;6.55;2.05;;;;;;;;;;5037860;28;20498;-75
2020/12/19 07:38:12;;;;;;;6.38;2.33;;;;;;;;;;5039033;28;20056;-76
2020/12/19 07:40:38;;;;;;;3.70;2.43;;;;;;;;;;5041241;28;20049;-76
2020/12/19 07:43:05;;;;;;;4.00;1.60;;;;;;;;;;5033612;28;20053;-79
2020/12/19 07:45:32;;;;;;;5.13;1.90;;;;;;;;;;5035580;28;20469;-75
2020/12/19 07:47:58;;;;;;;4.20;1.83;;;;;;;;;;5033025;28;20459;-76
2020/12/19 07:50:25;;;;;;;6.03;2.20;;;;;;;;;;5036097;28;20042;-76
2020/12/19 07:53:00;;;;;;;4.78;1.95;;;;;;;;;;5035468;28;20048;-75
2020/12/19 07:55:26;;;;;;;4.38;2.17;;;;;;;;;;5037574;28;20495;-76
2020/12/19 07:57:55;;;;;;;4.07;2.28;;;;;;;;;;5042779;28;20049;-77
2020/12/19 08:00:24;;;;;;;5.40;2.38;;;;;;;;;;5044178;28;20052;-77
2020/12/19 08:02:52;;;;;;;6.90;2.08;;;;;;;;;;5041984;28;20494;-77
2020/12/19 08:05:22;;;;;;;5.25;2.10;;;;;;;;;;5041986;28;20048;-78
2020/12/19 08:07:52;;;;;;;4.75;2.00;;;;;;;;;;5038044;28;20041;-78
2020/12/19 08:10:18;;;;;;;6.93;1.75;;;;;;;;;;5039050;28;20052;-83
2020/12/19 08:12:45;;;;;;;4.38;1.85;;;;;;;;;;5044070;28;20045;-74
2020/12/19 08:15:21;;;;;;;5.93;2.35;;;;;;;;;;5042950;28;20205;-74
2020/12/19 08:17:52;;;;;;;4.13;1.92;;;;;;;;;;5037812;28;20050;-74
2020/12/19 08:20:26;;;;;;;5.03;2.55;;;;;;;;;;5033490;28;20391;-70
2020/12/19 08:22:54;;;;;;;6.90;2.40;;;;;;;;;;5037912;28;20049;-70
2020/12/19 08:25:21;;;;;;;5.13;1.95;;;;;;;;;;5035898;28;20048;-72
2020/12/19 08:27:47;;;;;;;6.30;2.50;;;;;;;;;;5042734;28;20049;-79
2020/12/19 08:30:13;;;;;;;7.32;2.55;;;;;;;;;;5041281;28;20037;-74
2020/12/19 08:32:41;;;;;;;4.40;2.20;;;;;;;;;;5041049;28;20072;-72
2020/12/19 08:35:08;;;;;;;6.95;2.92;;;;;;;;;;5039772;28;20094;-72
2020/12/19 08:37:34;;;;;;;6.00;2.03;;;;;;;;;;5037439;28;20052;-72
2020/12/19 08:40:02;;;;;;;4.07;2.25;;;;;;;;;;5034327;28;20060;-72
2020/12/19 08:42:31;;;;;;;3.53;1.70;;;;;;;;;;5038942;28;20057;-72
2020/12/19 08:45:30;;;;;;;5.50;2.50;;;;;;;;;;5040013;28;20053;-71
2020/12/19 08:48:00;;;;;;;3.88;1.83;;;;;;;;;;5007750;28;20060;-73
2020/12/19 08:50:26;;;;;;;;;;;;;;;;;;5040223;28;20051;-72
2020/12/19 08:53:05;;;;;;;4.05;1.73;;;;;;;;;;5035145;28;19975;-72
2020/12/19 08:55:31;;;;;;;4.63;2.22;;;;;;;;;;5041639;28;20088;-72
2020/12/19 08:57:58;;;;;;;6.55;1.90;;;;;;;;;;5039843;28;21001;-71
2020/12/19 09:00:24;;;;;;;6.57;2.22;;;;;;;;;;5037071;28;20053;-71
2020/12/19 09:02:51;;;;;;;8.75;2.60;;;;;;;;;;5037349;28;20056;-72
2020/12/19 09:05:30;;;;;;;5.10;1.98;;;;;;;;;;5039178;28;20045;-72
2020/12/19 09:07:57;;;;;;;6.15;2.55;;;;;;;;;;5031783;28;20057;-72
2020/12/19 09:10:24;;;;;;;4.47;2.25;;;;;;;;;;5031144;28;20396;-72
2020/12/19 09:13:09;;;;;;;4.97;2.10;;;;;;;;;;5039311;28;20049;-71
2020/12/19 09:15:35;;;;;;;6.00;2.40;;;;;;;;;;5029453;28;20051;-72
2020/12/19 09:18:18;;;;;;;5.65;2.53;;;;;;;;;;5034546;28;20525;-72
2020/12/19 09:20:45;;;;;;;5.65;1.92;;;;;;;;;;5034147;28;20049;-72
2020/12/19 09:23:12;;;;;;;5.57;2.30;;;;;;;;;;5041069;28;20053;-73
2020/12/19 09:25:38;;;;;;;5.00;2.03;;;;;;;;;;5039740;28;20375;-72
2020/12/19 09:28:04;;;;;;;4.05;2.25;;;;;;;;;;5037728;28;20537;-72
2020/12/19 09:30:31;;;;;;;6.03;2.17;;;;;;;;;;5036658;28;20045;-72
2020/12/19 09:32:57;;;;;;;6.28;2.20;;;;;;;;;;5037953;28;20053;-76
2020/12/19 09:35:26;;;;;;;5.53;2.35;;;;;;;;;;5034786;28;20071;-72
2020/12/19 09:37:52;;;;;;;10.13;3.03;;;;;;;;;;5034038;28;20060;-72
2020/12/19 09:40:26;;;;;;;7.93;2.92;;;;;;;;;;5033425;28;20761;-72
2020/12/19 09:42:55;;;;;;;6.38;3.78;;;;;;;;;;5033815;28;20049;-73
2020/12/19 09:45:21;;;;;;;7.03;2.72;;;;;;;;;;5033636;28;20053;-73
2020/12/19 09:47:47;;;;;;;6.10;3.22;;;;;;;;;;5035554;28;20056;-73
2020/12/19 09:50:14;;;;;;;7.45;3.22;;;;;;;;;;5035870;28;20120;-72
2020/12/19 09:52:40;;;;;;;5.72;2.45;;;;;;;;;;5036228;28;20063;-72
2020/12/19 09:55:07;;;;;;;6.68;3.00;;;;;;;;;;5033350;28;20045;-72
2020/12/19 09:57:33;;;;;;;8.73;2.63;;;;;;;;;;5035693;28;20049;-72
2020/12/19 10:00:00;;;;;;;4.15;2.38;;;;;;;;;;5033954;28;20391;-72
2020/12/19 10:02:32;;;;;;;8.68;2.50;;;;;;;;;;5035034;28;20091;-74
2020/12/19 10:04:59;;;;;;;8.45;2.70;;;;;;;;;;5035681;28;20045;-73
2020/12/19 10:07:25;;;;;;;7.95;2.55;;;;;;;;;;5033261;28;20466;-75
2020/12/19 10:09:51;;;;;;;7.50;2.53;;;;;;;;;;5034855;28;20517;-73
2020/12/19 10:12:17;;;;;;;6.35;3.15;;;;;;;;;;5037860;28;20045;-73
2020/12/19 10:14:43;;;;;;;7.15;3.10;;;;;;;;;;5040538;28;20517;-72
2020/12/19 10:17:12;;;;;;;7.10;3.17;;;;;;;;;;5041960;28;20409;-71
2020/12/19 10:19:38;;;;;;;6.38;3.17;;;;;;;;;;5036980;28;20056;-73
2020/12/19 10:22:04;;;;;;;8.55;3.30;;;;;;;;;;5040576;28;20041;-75
2020/12/19 10:24:33;;;;;;;7.65;3.28;;;;;;;;;;5037024;28;20128;-72
2020/12/19 10:27:00;;;;;;;10.73;4.30;;;;;;;;;;5037602;28;20517;-72
2020/12/19 10:29:26;;;;;;;6.95;3.22;;;;;;;;;;5037046;28;20346;-80
2020/12/19 10:31:56;;;;;;;14.10;3.58;;;;;;;;;;5035952;28;20139;-76
2020/12/19 10:34:22;;;;;;;11.02;3.15;;;;;;;;;;5037461;28;20600;-74
2020/12/19 10:36:49;;;;;;;12.80;3.97;;;;;;;;;;5037704;28;20049;-74
2020/12/19 10:39:15;;;;;;;8.30;3.55;;;;;;;;;;5040240;28;20127;-75
2020/12/19 10:41:41;;;;;;;18.00;3.80;;;;;;;;;;5032794;28;20049;-75
2020/12/19 10:44:10;;;;;;;11.05;3.88;;;;;;;;;;5034525;28;20124;-76
2020/12/19 10:46:36;;;;;;;12.18;3.50;;;;;;;;;;5035215;28;20045;-75
2020/12/19 10:49:04;;;;;;;12.10;3.80;;;;;;;;;;5032878;28;20489;-75
2020/12/19 10:51:30;;;;;;;10.20;3.88;;;;;;;;;;5033487;28;20041;-76
2020/12/19 10:53:56;;;;;;;7.45;3.45;;;;;;;;;;5033945;28;20049;-76
2020/12/19 10:56:23;;;;;;;8.55;3.42;;;;;;;;;;5046924;28;20457;-75
2020/12/19 10:58:49;;;;;;;11.90;3.38;;;;;;;;;;5037185;28;20053;-75
2020/12/19 11:01:19;;;;;;;6.75;3.22;;;;;;;;;;5035869;28;20053;-75
2020/12/19 11:03:49;;;;;;;7.82;3.42;;;;;;;;;;5034047;28;20060;-76
2020/12/19 11:06:19;;;;;;;6.70;3.35;;;;;;;;;;5034109;28;20049;-76
2020/12/19 11:08:46;;;;;;;8.80;3.78;;;;;;;;;;5037784;28;20053;-76
2020/12/19 11:11:20;;;;;;;10.57;2.80;;;;;;;;;;5034926;28;20136;-75
2020/12/19 11:13:47;;;;;;;9.77;3.33;;;;;;;;;;5039055;28;20125;-76
2020/12/19 11:16:23;;;;;;;7.30;2.80;;;;;;;;;;5039387;28;20049;-75
2020/12/19 11:18:49;;;;;;;10.48;2.78;;;;;;;;;;5037556;28;20045;-76
2020/12/19 11:21:16;;;;;;;8.82;3.25;;;;;;;;;;5035158;28;20048;-76
2020/12/19 11:23:45;;;;;;;8.75;3.67;;;;;;;;;;5033712;28;20071;-75
2020/12/19 11:26:12;;;;;;;6.68;2.97;;;;;;;;;;5033202;28;20053;-75
2020/12/19 11:28:38;;;;;;;7.60;3.00;;;;;;;;;;5033068;28;20045;-76
2020/12/19 11:31:07;;;;;;;8.70;3.10;;;;;;;;;;5032876;28;20041;-75
2020/12/19 11:33:33;;;;;;;7.40;3.00;;;;;;;;;;5032985;28;20053;-74
2020/12/19 11:36:01;;;;;;;8.85;3.58;;;;;;;;;;5035075;28;20617;-74
2020/12/19 11:38:27;;;;;;;8.40;3.13;;;;;;;;;;5034864;28;20049;-76
2020/12/19 11:40:54;;;;;;;5.72;2.63;;;;;;;;;;5037149;28;20052;-75
2020/12/19 11:43:20;;;;;;;6.55;3.20;;;;;;;;;;5035634;28;20482;-75
2020/12/19 11:45:47;;;;;;;7.32;2.70;;;;;;;;;;5036841;28;20053;-77
2020/12/19 11:48:15;;;;;;;9.70;2.90;;;;;;;;;;5033008;28;20053;-75
2020/12/19 11:50:41;;;;;;;8.35;2.45;;;;;;;;;;5032922;28;20045;-75
2020/12/19 11:53:07;;;;;;;9.02;3.25;;;;;;;;;;5033632;28;20049;-76
2020/12/19 11:55:33;;;;;;;9.18;3.00;;;;;;;;;;5038566;28;20064;-76
2020/12/19 11:58:00;;;;;;;7.15;2.88;;;;;;;;;;5032525;28;20049;-75
2020/12/19 12:00:35;;;;;;;7.32;3.17;;;;;;;;;;5032235;28;20046;-75
2020/12/19 12:03:01;;;;;;;6.13;2.83;;;;;;;;;;5032494;28;20046;-75
2020/12/19 12:05:27;;;;;;;9.55;2.90;;;;;;;;;;5032763;28;20102;-76
2020/12/19 12:07:53;;;;;;;4.65;2.03;;;;;;;;;;5030653;28;20043;-76
2020/12/19 12:10:19;;;;;;;4.57;1.95;;;;;;;;;;5039683;28;20052;-75
2020/12/19 12:12:46;;;;;;;7.32;3.15;;;;;;;;;;5033701;28;20060;-76
2020/12/19 12:15:15;;;;;;;6.38;2.17;;;;;;;;;;5032711;28;20049;-75
2020/12/19 12:17:41;;;;;;;7.53;2.60;;;;;;;;;;5033683;28;20056;-75
2020/12/19 12:20:08;;;;;;;5.20;2.10;;;;;;;;;;5041302;28;20045;-75
2020/12/19 12:22:34;;;;;;;8.00;2.80;;;;;;;;;;5033864;28;20041;-75
2020/12/19 12:25:00;;;;;;;5.93;2.67;;;;;;;;;;5031914;28;20048;-75
2020/12/19 12:27:26;;;;;;;6.25;2.50;;;;;;;;;;5035887;28;20517;-76
2020/12/19 12:29:55;;;;;;;5.30;2.50;;;;;;;;;;5037072;28;20061;-75
2020/12/19 12:32:21;;;;;;;5.72;2.75;;;;;;;;;;5037047;28;20065;-75
2020/12/19 12:34:48;;;;;;;5.53;2.33;;;;;;;;;;5031826;28;20085;-75
2020/12/19 12:37:15;;;;;;;6.20;2.28;;;;;;;;;;5032143;28;20487;-75
2020/12/19 12:39:41;;;;;;;5.63;2.35;;;;;;;;;;5034205;28;20060;-75
2020/12/19 12:42:10;;;;;;;7.55;2.47;;;;;;;;;;5036915;28;20045;-76
2020/12/19 12:44:36;;;;;;;5.20;2.30;;;;;;;;;;5038792;28;20053;-75
2020/12/19 12:47:05;;;;;;;5.22;2.85;;;;;;;;;;5034961;28;20130;-75
2020/12/19 12:49:32;;;;;;;8.55;2.67;;;;;;;;;;5031435;28;20277;-75
2020/12/19 12:51:58;;;;;;;6.28;2.72;;;;;;;;;;5032081;28;20076;-76
2020/12/19 12:54:24;;;;;;;6.43;2.05;;;;;;;;;;5031730;28;20044;-75
2020/12/19 12:56:50;;;;;;;8.65;2.17;;;;;;;;;;5031845;28;20056;-75
2020/12/19 12:59:21;;;;;;;3.95;2.13;;;;;;;;;;5032730;28;20045;-76
2020/12/19 13:01:47;;;;;;;6.03;2.38;;;;;;;;;;5031845;28;20049;-80
2020/12/19 13:04:14;;;;;;;4.53;2.00;;;;;;;;;;5040971;28;20036;-74
2020/12/19 13:06:40;;;;;;;3.83;2.00;;;;;;;;;;5043568;28;20053;-82
2020/12/19 13:09:06;;;;;;;4.18;2.17;;;;;;;;;;5039483;28;20057;-75
2020/12/19 13:11:32;;;;;;;7.03;2.40;;;;;;;;;;5036134;28;20068;-74
2020/12/19 13:13:59;;;;;;;9.23;2.28;;;;;;;;;;5038636;28;20411;-74
2020/12/19 13:16:25;;;;;;;15.80;3.28;;;;;;;;;;5036792;28;20130;-76
2020/12/19 13:18:53;;;;;;;10.82;2.72;;;;;;;;;;5039966;28;20060;-74
2020/12/19 13:21:20;;;;;;;5.43;2.17;;;;;;;;;;5037516;28;20406;-74
2020/12/19 13:23:49;;;;;;;5.65;2.60;;;;;;;;;;5036747;28;20056;-74
2020/12/19 13:26:22;;;;;;;5.35;2.08;;;;;;;;;;5037597;28;20066;-77
2020/12/19 13:28:48;;;;;;;5.15;2.35;;;;;;;;;;5038486;28;20060;-76
2020/12/19 13:31:14;;;;;;;5.38;1.88;;;;;;;;;;5035518;28;20077;-76
2020/12/19 13:33:41;;;;;;;7.82;2.22;;;;;;;;;;5034147;28;20503;-73
2020/12/19 13:36:07;;;;;;;7.68;2.70;;;;;;;;;;5036891;28;20045;-73
2020/12/19 13:38:33;;;;;;;7.35;2.22;;;;;;;;;;5037922;28;20041;-73
2020/12/19 13:41:01;;;;;;;7.90;3.13;;;;;;;;;;5035651;28;20042;-74
2020/12/19 13:43:30;;;;;;;7.47;2.80;;;;;;;;;;5037250;28;20045;-74
2020/12/19 13:45:56;;;;;;;6.28;2.50;;;;;;;;;;5043870;28;20050;-73
2020/12/19 13:48:23;;;;;;;8.55;3.15;;;;;;;;;;5038651;28;20053;-73
2020/12/19 13:50:49;;;;;;;6.90;2.42;;;;;;;;;;5041827;28;20052;-73
2020/12/19 13:53:15;;;;;;;6.40;2.65;;;;;;;;;;5041753;28;20052;-73
2020/12/19 13:55:41;;;;;;;4.95;2.10;;;;;;;;;;5038764;28;20510;-73
2020/12/19 13:58:10;;;;;;;5.68;2.13;;;;;;;;;;5035126;28;20067;-73
2020/12/19 14:00:36;;;;;;;7.05;2.80;;;;;;;;;;5034145;28;20410;-73
2020/12/19 14:03:03;;;;;;;7.40;2.28;;;;;;;;;;5031502;28;21405;-73
2020/12/19 14:05:29;;;;;;;6.65;2.45;;;;;;;;;;5035255;28;20055;-74
2020/12/19 14:07:56;;;;;;;4.65;1.80;;;;;;;;;;5040741;28;20044;-74
2020/12/19 14:10:22;;;;;;;7.60;1.85;;;;;;;;;;5037850;28;20087;-73
2020/12/19 14:13:01;;;;;;;7.72;2.33;;;;;;;;;;5037199;28;20052;-74
2020/12/19 14:15:27;;;;;;;4.90;2.33;;;;;;;;;;5034357;28;20052;-74
2020/12/19 14:17:53;;;;;;;8.00;2.90;;;;;;;;;;5031891;28;20365;-74
2020/12/19 14:20:34;;;;;;;4.18;1.92;;;;;;;;;;5031619;28;20045;-75
2020/12/19 14:23:00;;;;;;;4.57;2.28;;;;;;;;;;5038357;28;20487;-74
2020/12/19 14:25:26;;;;;;;5.18;1.70;;;;;;;;;;5044973;28;20140;-74
2020/12/19 14:27:58;;;;;;;2.72;1.70;;;;;;;;;;5034443;28;20490;-74
2020/12/19 14:30:26;;;;;;;13.63;3.75;;;;;;;;;;5036373;28;20046;-76
2020/12/19 14:32:52;;;;;;;5.50;2.47;;;;;;;;;;5034847;28;20450;-74
2020/12/19 14:35:18;;;;;;;6.13;2.40;;;;;;;;;;5037343;28;20080;-74
2020/12/19 14:37:44;;;;;;;3.92;2.05;;;;;;;;;;5037424;28;20418;-74
2020/12/19 14:40:17;;;;;;;8.23;2.28;;;;;;;;;;5041116;28;20674;-74
2020/12/19 14:42:43;;;;;;;4.82;2.35;;;;;;;;;;5043152;28;20487;-74
2020/12/19 14:45:10;;;;;;;4.63;1.90;;;;;;;;;;5038956;28;20048;-74
2020/12/19 14:47:44;;;;;;;4.25;1.88;;;;;;;;;;5039600;28;20049;-74
2020/12/19 14:50:11;;;;;;;5.47;2.22;;;;;;;;;;5040871;28;20049;-74